Kennedy Shores, Texas
Current Conditions -  °F | °C
As of 1:53 PM on Friday 19 Dec 2014 (Local Time) from KBRO Reporting Station
Overcast Overcast  
Wind Chill: 72°   Ceiling: 1400
Heat Index: 72°   Visibility: 9mi
Dew Point: 65°   Wind: 13mph
Humidity: 78%   Direction: 310°NW
Pressure: 29.96"   Gusts: NA
Location:  26.0002°N, 97.5729°W
Report Text: KBRO 191953Z 31011KT 9SM BKN014 OVC021 22/18 A2996 RMK AO2 SLP143 T02220183
Loading
Personal Weather Stations






























Interactive Weather Map New forecast layout! Learn more

10-Day Weather Forecast

Advertisements
Track Severe Weather on mobile